Tinaja, New Mexico
Current Conditions -  °F | °C
As of 3:53 PM on Wednesday 22 Oct 2014 (Local Time) from KGUP Reporting Station
Clear Clear  
Wind Chill: 21°   Ceiling: Unl
Heat Index: 21°   Visibility: 10mi
Dew Point:   Wind: 12mph
Humidity: 30%   Direction: 240°WSW
Pressure: 30.19"   Gusts: 17mph
Location:  35.1314°N, 108.496°W
Report Text: KGUP 222153Z AUTO 24010G15KT 10SM CLR 21/02 A3019 RMK AO2 SLP129 T02060022
Loading
Personal Weather Stations






























Interactive Weather Map
Tropical Storm Tracking
New forecast layout! Learn more

10-Day Weather Forecast

Advertisements
Track Severe Weather on mobile